createdAt,value
2019-05-07T00:00:59.521Z,7.33
2019-05-07T00:03:29.929Z,7.32
2019-05-07T00:06:02.660Z,7.28
2019-05-07T00:08:32.592Z,7.27
2019-05-07T00:11:03.030Z,7.19
2019-05-07T00:13:33.539Z,7.11
2019-05-07T00:16:03.961Z,7.05
2019-05-07T00:18:34.474Z,7.03
2019-05-07T00:21:04.879Z,7.08
2019-05-07T00:23:35.414Z,7.00
2019-05-07T00:26:05.880Z,7.00
2019-05-07T00:28:36.291Z,6.96
2019-05-07T00:31:06.721Z,7.00
2019-05-07T00:33:38.285Z,6.96
2019-05-07T00:36:24.595Z,6.90
2019-05-07T00:39:02.816Z,6.94
2019-05-07T00:41:44.424Z,7.04
2019-05-07T00:44:15.264Z,7.02
2019-05-07T00:46:45.861Z,7.10
2019-05-07T00:49:16.393Z,7.08
2019-05-07T00:51:48.160Z,7.00
2019-05-07T00:54:18.619Z,7.02
2019-05-07T00:56:49.236Z,6.90
2019-05-07T00:59:19.735Z,6.88
2019-05-07T01:01:52.647Z,6.89
2019-05-07T01:04:23.058Z,6.91
2019-05-07T01:06:53.639Z,6.89
2019-05-07T01:09:24.050Z,6.82
2019-05-07T01:11:54.569Z,6.83
2019-05-07T01:14:24.955Z,6.82
2019-05-07T01:16:55.376Z,6.78
2019-05-07T01:19:25.866Z,6.72
2019-05-07T01:21:56.339Z,6.73
2019-05-07T01:24:26.801Z,6.68
2019-05-07T01:26:57.186Z,6.74
2019-05-07T01:29:27.867Z,6.74
2019-05-07T01:32:04.662Z,6.63
2019-05-07T01:34:44.023Z,6.59
2019-05-07T01:37:14.494Z,6.59
2019-05-07T01:39:45.024Z,6.58
2019-05-07T01:42:36.583Z,6.60
2019-05-07T01:45:08.629Z,6.66
2019-05-07T01:47:39.042Z,6.63
2019-05-07T01:50:09.475Z,6.69
2019-05-07T01:52:39.926Z,6.73
2019-05-07T01:55:12.809Z,6.71
2019-05-07T01:57:42.587Z,6.74
2019-05-07T02:00:13.224Z,6.66
2019-05-07T02:03:05.824Z,6.66
2019-05-07T02:06:04.085Z,6.71
2019-05-07T02:08:56.265Z,6.78
2019-05-07T02:11:32.741Z,6.76
2019-05-07T02:14:03.320Z,6.79
2019-05-07T02:16:33.984Z,6.93
2019-05-07T02:19:04.465Z,6.87
2019-05-07T02:21:34.912Z,6.85
2019-05-07T02:24:05.321Z,6.90
2019-05-07T02:26:35.769Z,6.85
2019-05-07T02:29:06.424Z,6.95
2019-05-07T02:31:36.832Z,6.84
2019-05-07T02:34:07.245Z,6.85
2019-05-07T02:36:38.786Z,6.93
2019-05-07T02:39:15.810Z,6.91
2019-05-07T02:41:46.333Z,6.94
2019-05-07T02:44:16.810Z,6.84
2019-05-07T02:46:59.000Z,6.80
2019-05-07T02:49:53.702Z,6.82
2019-05-07T02:52:43.759Z,6.82
2019-05-07T02:55:23.601Z,6.84
2019-05-07T02:57:54.363Z,6.84
2019-05-07T03:00:24.841Z,6.84
2019-05-07T03:02:55.278Z,6.81
2019-05-07T03:05:25.847Z,6.81
2019-05-07T03:07:56.363Z,6.84
2019-05-07T03:10:26.789Z,6.82
2019-05-07T03:12:57.277Z,6.79
2019-05-07T03:15:27.801Z,6.75
2019-05-07T03:17:58.227Z,6.90
2019-05-07T03:20:35.221Z,6.87
2019-05-07T03:23:07.040Z,6.84
2019-05-07T03:25:55.036Z,6.90
2019-05-07T03:28:26.296Z,6.82
2019-05-07T03:31:06.664Z,6.89
2019-05-07T03:33:58.798Z,6.93
2019-05-07T03:36:46.617Z,6.91
2019-05-07T03:39:14.587Z,6.94
2019-05-07T03:41:45.615Z,6.95
2019-05-07T03:44:23.827Z,6.87
2019-05-07T03:47:02.134Z,6.90
2019-05-07T03:49:30.209Z,6.88
2019-05-07T03:52:03.857Z,6.86
2019-05-07T03:54:34.207Z,6.85
2019-05-07T03:57:10.704Z,6.82
2019-05-07T03:59:36.960Z,6.87
2019-05-07T04:02:07.352Z,7.00
2019-05-07T04:04:37.837Z,7.01
2019-05-07T04:07:08.254Z,6.99
2019-05-07T04:09:38.693Z,6.93
2019-05-07T04:12:09.166Z,6.96
2019-05-07T04:14:39.599Z,6.94
2019-05-07T04:17:21.193Z,6.94
2019-05-07T04:19:44.093Z,6.93
2019-05-07T04:22:14.579Z,6.99
2019-05-07T04:24:53.966Z,7.00
2019-05-07T04:27:33.356Z,7.05
2019-05-07T04:30:04.092Z,7.08
2019-05-07T04:32:43.342Z,7.04
2019-05-07T04:35:20.873Z,7.13
2019-05-07T04:37:53.327Z,7.07
2019-05-07T04:40:24.202Z,7.15
2019-05-07T04:42:54.835Z,7.02
2019-05-07T04:45:25.244Z,7.13
2019-05-07T04:47:55.834Z,7.27
2019-05-07T04:50:39.559Z,7.22
2019-05-07T04:53:02.900Z,7.31
2019-05-07T04:55:33.936Z,7.42
2019-05-07T04:58:08.698Z,7.48
2019-05-07T05:00:36.528Z,7.60
2019-05-07T05:03:24.260Z,7.62
2019-05-07T05:05:54.834Z,7.64
2019-05-07T05:08:25.502Z,7.74
2019-05-07T05:10:55.925Z,7.89
2019-05-07T05:13:26.643Z,7.90
2019-05-07T05:15:57.251Z,7.98
2019-05-07T05:18:27.701Z,7.99
2019-05-07T05:21:24.602Z,8.03
2019-05-07T05:24:07.989Z,8.13
2019-05-07T05:26:38.411Z,8.17
2019-05-07T05:29:08.835Z,8.21
2019-05-07T05:31:39.347Z,8.20
2019-05-07T05:34:09.795Z,8.30
2019-05-07T05:36:42.390Z,8.31
2019-05-07T05:39:13.112Z,8.32
2019-05-07T05:41:45.946Z,8.42
2019-05-07T05:44:22.901Z,8.47
2019-05-07T05:46:53.376Z,8.38
2019-05-07T05:49:23.883Z,8.63
2019-05-07T05:52:19.150Z,8.76
2019-05-07T05:54:54.213Z,8.95
2019-05-07T05:57:52.689Z,8.96
2019-05-07T06:00:45.228Z,9.20
2019-05-07T06:03:33.568Z,9.47
2019-05-07T06:06:26.049Z,9.69
2019-05-07T06:09:05.084Z,9.94
2019-05-07T06:11:57.055Z,10.01
2019-05-07T06:14:33.578Z,9.98
2019-05-07T06:17:13.873Z,9.69
2019-05-07T06:19:52.955Z,9.85
2019-05-07T06:22:45.085Z,9.77
2019-05-07T06:25:19.051Z,10.00
2019-05-07T06:27:49.527Z,9.85
2019-05-07T06:30:22.627Z,9.85
2019-05-07T06:32:52.800Z,9.89
2019-05-07T06:35:23.214Z,10.04
2019-05-07T06:37:53.777Z,9.91
2019-05-07T06:40:52.439Z,10.13
2019-05-07T06:43:42.141Z,9.88
2019-05-07T06:46:12.829Z,10.11
2019-05-07T06:48:46.112Z,10.00
2019-05-07T06:51:17.529Z,10.13
2019-05-07T06:53:48.383Z,10.23
2019-05-07T06:56:18.914Z,10.27
2019-05-07T06:59:04.946Z,10.38
2019-05-07T07:01:59.387Z,10.30
2019-05-07T07:04:38.723Z,10.39
2019-05-07T07:07:37.717Z,10.65
2019-05-07T07:10:32.331Z,10.70
2019-05-07T07:13:02.963Z,10.67
2019-05-07T07:15:33.420Z,10.58
2019-05-07T07:18:03.881Z,10.86
2019-05-07T07:20:34.342Z,11.00
2019-05-07T07:23:04.898Z,11.53
2019-05-07T07:25:35.396Z,11.55
2019-05-07T07:28:05.945Z,12.06
2019-05-07T07:31:08.955Z,12.38
2019-05-07T07:33:43.714Z,12.61
2019-05-07T07:36:14.163Z,12.72
2019-05-07T07:38:44.650Z,13.30
2019-05-07T07:41:34.076Z,13.38
2019-05-07T07:44:05.532Z,13.19
2019-05-07T07:46:36.008Z,12.96
2019-05-07T07:49:11.297Z,13.05
2019-05-07T07:51:42.735Z,13.09
2019-05-07T07:54:13.123Z,13.39
2019-05-07T07:57:07.203Z,13.70
2019-05-07T08:00:05.982Z,13.90
2019-05-07T08:02:52.953Z,14.39
2019-05-07T08:05:23.548Z,14.36
2019-05-07T08:07:54.019Z,14.07
2019-05-07T08:10:24.551Z,13.56
2019-05-07T08:12:55.084Z,13.10
2019-05-07T08:15:25.597Z,12.67
2019-05-07T08:17:56.812Z,12.99
2019-05-07T08:20:28.199Z,13.10
2019-05-07T08:22:58.814Z,13.75
2019-05-07T08:25:47.881Z,13.79
2019-05-07T08:28:22.827Z,13.78
2019-05-07T08:31:06.174Z,13.64
2019-05-07T08:33:42.832Z,12.95
2019-05-07T08:36:17.827Z,12.64
2019-05-07T08:38:55.664Z,12.59
2019-05-07T08:41:42.345Z,13.00
2019-05-07T08:44:43.173Z,13.03
2019-05-07T08:47:53.694Z,13.50
2019-05-07T08:50:26.851Z,13.52
2019-05-07T08:53:02.671Z,13.82
2019-05-07T08:55:33.394Z,14.04
2019-05-07T08:58:04.006Z,13.58
2019-05-07T09:00:52.858Z,13.15
2019-05-07T09:03:45.572Z,12.91
2019-05-07T09:06:18.235Z,12.72
2019-05-07T09:09:02.219Z,12.72
2019-05-07T09:11:51.892Z,12.90
2019-05-07T09:14:32.042Z,13.00
2019-05-07T09:17:04.675Z,12.67
2019-05-07T09:19:47.176Z,12.81
2019-05-07T09:22:07.696Z,12.60
2019-05-07T09:24:38.237Z,12.67
2019-05-07T09:27:38.996Z,12.60
2019-05-07T09:30:58.218Z,12.34
2019-05-07T09:34:52.034Z,12.34
2019-05-07T09:41:02.285Z,12.05
2019-05-07T09:43:32.933Z,12.02
2019-05-07T09:46:03.639Z,12.04
2019-05-07T09:48:35.765Z,12.01
2019-05-07T09:51:08.900Z,12.04
2019-05-07T09:53:42.499Z,12.16
2019-05-07T09:56:26.435Z,12.36
2019-05-07T09:58:56.898Z,12.52
2019-05-07T10:01:27.323Z,12.76
2019-05-07T10:03:57.946Z,13.55
2019-05-07T10:06:32.073Z,14.66
2019-05-07T10:09:05.476Z,15.70
2019-05-07T10:11:43.511Z,16.56
2019-05-07T10:14:15.783Z,16.82
2019-05-07T10:16:59.445Z,17.18
2019-05-07T10:19:32.336Z,17.21
2019-05-07T10:22:03.760Z,17.80
2019-05-07T10:24:36.871Z,17.56
2019-05-07T10:27:27.107Z,17.10
2019-05-07T10:30:02.439Z,16.16
2019-05-07T10:32:36.031Z,15.25
2019-05-07T10:35:06.946Z,15.36
2019-05-07T10:37:37.350Z,15.15
2019-05-07T10:40:09.029Z,14.85
2019-05-07T10:42:43.077Z,14.84
2019-05-07T10:45:54.020Z,14.43
2019-05-07T10:48:47.224Z,14.24
2019-05-07T10:51:24.999Z,13.86
2019-05-07T10:53:55.836Z,13.92
2019-05-07T10:56:37.793Z,13.73
2019-05-07T10:59:09.557Z,13.64
2019-05-07T11:02:06.542Z,13.54
2019-05-07T11:04:45.972Z,13.25
2019-05-07T11:07:36.949Z,13.44
2019-05-07T11:10:13.627Z,13.37
2019-05-07T11:12:51.806Z,13.48
2019-05-07T11:15:22.395Z,13.59
2019-05-07T11:18:08.695Z,13.64
2019-05-07T11:20:49.002Z,13.93
2019-05-07T11:23:22.290Z,13.90
2019-05-07T11:26:07.689Z,14.26
2019-05-07T11:28:38.362Z,14.65
2019-05-07T11:31:09.334Z,15.74
2019-05-07T11:33:42.765Z,16.52
2019-05-07T11:36:13.429Z,16.50
2019-05-07T11:38:44.658Z,16.11
2019-05-07T11:41:15.191Z,15.85
2019-05-07T11:44:06.649Z,15.89
2019-05-07T11:46:41.599Z,16.66
2019-05-07T11:49:22.815Z,16.88
2019-05-07T11:52:00.910Z,17.43
2019-05-07T11:54:31.911Z,16.72
2019-05-07T11:57:05.109Z,16.92
2019-05-07T11:59:35.651Z,17.22
2019-05-07T12:02:06.815Z,16.89
2019-05-07T12:04:37.285Z,16.69
2019-05-07T12:07:07.754Z,16.62
2019-05-07T12:09:43.408Z,16.65
2019-05-07T12:12:15.670Z,17.01
2019-05-07T12:14:46.660Z,16.78
2019-05-07T12:17:17.116Z,17.13
2019-05-07T12:19:47.533Z,16.36
2019-05-07T12:22:44.234Z,15.87
2019-05-07T12:25:15.120Z,15.39
2019-05-07T12:27:46.029Z,15.42
2019-05-07T12:31:13.640Z,15.12
2019-05-07T12:33:54.974Z,14.65
2019-05-07T12:36:25.438Z,14.41
2019-05-07T12:39:12.749Z,14.24
2019-05-07T12:41:43.370Z,13.96
2019-05-07T12:44:42.479Z,13.94
2019-05-07T12:47:13.127Z,13.81
2019-05-07T12:49:44.342Z,13.81
2019-05-07T12:52:29.054Z,13.99
2019-05-07T12:55:45.414Z,13.94
2019-05-07T12:59:22.740Z,13.86
2019-05-07T13:02:40.770Z,14.13
2019-05-07T13:05:08.591Z,14.29
2019-05-07T13:08:09.128Z,14.28
2019-05-07T13:10:39.803Z,14.28
2019-05-07T13:13:12.180Z,14.41
2019-05-07T13:15:43.387Z,14.36
2019-05-07T13:18:13.954Z,14.34
2019-05-07T13:20:45.342Z,14.37
2019-05-07T13:23:16.034Z,14.39
2019-05-07T13:25:46.581Z,14.42
2019-05-07T13:28:17.031Z,14.67
2019-05-07T13:30:47.518Z,15.24
2019-05-07T13:33:19.209Z,15.21
2019-05-07T13:35:52.261Z,15.49
2019-05-07T13:38:48.663Z,15.87
2019-05-07T13:41:51.840Z,15.45
2019-05-07T13:44:51.961Z,15.38
2019-05-07T13:47:34.097Z,16.18
2019-05-07T13:50:05.156Z,16.76
2019-05-07T13:52:35.662Z,17.36
2019-05-07T13:55:07.347Z,17.05
2019-05-07T13:57:37.993Z,16.85
2019-05-07T14:00:14.742Z,17.09
2019-05-07T14:02:45.187Z,17.50
2019-05-07T14:05:16.056Z,17.81
2019-05-07T14:07:46.578Z,17.48
2019-05-07T14:10:17.306Z,17.02
2019-05-07T14:12:48.236Z,16.78
2019-05-07T14:15:19.062Z,16.49
2019-05-07T14:17:49.812Z,16.00
2019-05-07T14:20:22.186Z,15.87
2019-05-07T14:22:52.829Z,16.05
2019-05-07T14:25:24.116Z,15.77
2019-05-07T14:27:54.892Z,15.91
2019-05-07T14:30:25.517Z,16.14
2019-05-07T14:33:01.814Z,16.88
2019-05-07T14:35:48.373Z,16.81
2019-05-07T14:38:32.323Z,16.75
2019-05-07T14:41:02.872Z,16.58
2019-05-07T14:43:43.840Z,16.56
2019-05-07T14:46:15.019Z,16.67
2019-05-07T14:48:45.632Z,16.65
2019-05-07T14:51:16.235Z,16.40
2019-05-07T14:53:46.775Z,16.41
2019-05-07T14:56:17.273Z,16.30
2019-05-07T14:58:47.884Z,16.19
2019-05-07T15:01:18.353Z,16.82
2019-05-07T15:03:48.784Z,16.91
2019-05-07T15:06:19.393Z,16.78
2019-05-07T15:08:52.082Z,17.36
2019-05-07T15:11:24.670Z,17.52
2019-05-07T15:13:57.435Z,17.03
2019-05-07T15:16:31.997Z,16.92
2019-05-07T15:19:03.789Z,17.14
2019-05-07T15:21:36.665Z,17.16
2019-05-07T15:24:18.139Z,16.91
2019-05-07T15:27:14.531Z,16.36
2019-05-07T15:30:02.299Z,16.73
2019-05-07T15:32:33.087Z,16.78
2019-05-07T15:35:12.453Z,16.55
2019-05-07T15:38:08.196Z,16.54
2019-05-07T15:40:42.498Z,15.99
2019-05-07T15:43:13.060Z,16.06
2019-05-07T15:45:43.555Z,16.15
2019-05-07T15:48:14.018Z,16.00
2019-05-07T15:50:44.682Z,16.22
2019-05-07T15:53:27.413Z,16.82
2019-05-07T15:56:01.647Z,16.80
2019-05-07T15:58:38.304Z,16.45
2019-05-07T16:01:09.157Z,16.63
2019-05-07T16:03:44.896Z,16.46
2019-05-07T16:06:15.514Z,16.49
2019-05-07T16:09:04.683Z,16.58
2019-05-07T16:11:39.051Z,16.26
2019-05-07T16:14:18.002Z,16.28
2019-05-07T16:17:07.381Z,16.01
2019-05-07T16:19:37.863Z,16.07
2019-05-07T16:22:12.824Z,15.88
2019-05-07T16:24:46.553Z,15.91
2019-05-07T16:27:24.324Z,15.88
2019-05-07T16:30:01.685Z,16.11
2019-05-07T16:32:34.677Z,15.95
2019-05-07T16:35:05.637Z,15.68
2019-05-07T16:37:36.336Z,15.80
2019-05-07T16:40:08.455Z,15.87
2019-05-07T16:42:42.888Z,15.91
2019-05-07T16:45:25.633Z,16.10
2019-05-07T16:47:56.268Z,16.03
2019-05-07T16:50:26.758Z,16.01
2019-05-07T16:52:57.247Z,16.17
2019-05-07T16:55:45.500Z,16.08
2019-05-07T16:58:34.864Z,15.77
2019-05-07T17:01:07.094Z,15.81
2019-05-07T17:03:43.031Z,15.84
2019-05-07T17:06:13.622Z,15.70
2019-05-07T17:09:09.508Z,15.59
2019-05-07T17:11:40.086Z,15.63
2019-05-07T17:14:12.946Z,15.60
2019-05-07T17:16:53.406Z,15.61
2019-05-07T17:19:29.083Z,15.48
2019-05-07T17:21:59.802Z,15.45
2019-05-07T17:24:30.302Z,15.39
2019-05-07T17:27:02.343Z,15.38
2019-05-07T17:29:33.027Z,15.33
2019-05-07T17:32:03.627Z,15.39
2019-05-07T17:34:34.277Z,15.08
2019-05-07T17:37:04.840Z,15.03
2019-05-07T17:39:35.549Z,15.13
2019-05-07T17:42:06.056Z,15.21
2019-05-07T17:44:36.634Z,15.25
2019-05-07T17:47:07.137Z,15.31
2019-05-07T17:49:37.647Z,15.24
2019-05-07T17:52:10.025Z,15.21
2019-05-07T17:54:42.255Z,15.36
2019-05-07T17:57:15.716Z,15.25
2019-05-07T17:59:44.871Z,15.26
2019-05-07T18:02:32.696Z,15.16
2019-05-07T18:05:03.213Z,15.17
2019-05-07T18:07:33.724Z,15.15
2019-05-07T18:10:04.292Z,15.15
2019-05-07T18:12:34.836Z,15.08
2019-05-07T18:15:05.495Z,15.16
2019-05-07T18:17:50.212Z,14.85
2019-05-07T18:20:22.218Z,14.75
2019-05-07T18:22:52.864Z,14.53
2019-05-07T18:25:23.337Z,14.42
2019-05-07T18:27:53.827Z,14.48
2019-05-07T18:30:24.497Z,14.47
2019-05-07T18:33:19.217Z,14.40
2019-05-07T18:35:52.414Z,14.42
2019-05-07T18:38:22.546Z,14.48
2019-05-07T18:40:53.051Z,14.43
2019-05-07T18:43:23.521Z,14.36
2019-05-07T18:45:53.960Z,14.43
2019-05-07T18:48:24.395Z,14.21
2019-05-07T18:50:54.870Z,14.25
2019-05-07T18:53:25.432Z,14.19
2019-05-07T18:55:55.965Z,13.99
2019-05-07T18:58:26.526Z,13.94
2019-05-07T19:01:02.530Z,13.93
2019-05-07T19:03:32.636Z,13.88
2019-05-07T19:06:03.166Z,13.80
2019-05-07T19:08:35.601Z,13.80
2019-05-07T19:11:06.279Z,13.78
2019-05-07T19:13:36.981Z,13.77
2019-05-07T19:16:07.478Z,13.53
2019-05-07T19:18:38.054Z,13.55
2019-05-07T19:21:08.507Z,13.45
2019-05-07T19:23:39.036Z,13.37
2019-05-07T19:26:09.610Z,13.37
2019-05-07T19:28:40.054Z,13.39
2019-05-07T19:31:12.445Z,13.27
2019-05-07T19:33:42.855Z,13.22
2019-05-07T19:36:13.343Z,13.19
2019-05-07T19:38:46.431Z,13.15
2019-05-07T19:41:16.889Z,13.07
2019-05-07T19:43:47.461Z,12.96
2019-05-07T19:46:17.953Z,12.99
2019-05-07T19:48:48.467Z,13.05
2019-05-07T19:51:18.976Z,13.08
2019-05-07T19:53:49.482Z,13.17
2019-05-07T19:56:24.773Z,13.14
2019-05-07T19:58:55.415Z,13.04
2019-05-07T20:01:32.357Z,13.06
2019-05-07T20:04:03.455Z,13.06
2019-05-07T20:06:42.922Z,13.03
2019-05-07T20:09:15.708Z,13.09
2019-05-07T20:12:03.015Z,13.14
2019-05-07T20:15:36.101Z,13.07
2019-05-07T20:18:12.392Z,13.07
2019-05-07T20:20:50.843Z,12.82
2019-05-07T20:23:29.770Z,12.85
2019-05-07T20:26:02.813Z,12.85
2019-05-07T20:28:33.503Z,12.86
2019-05-07T20:31:13.944Z,12.81
2019-05-07T20:33:45.034Z,12.88
2019-05-07T20:36:19.251Z,12.79
2019-05-07T20:38:51.957Z,12.78
2019-05-07T20:41:23.333Z,12.82
2019-05-07T20:43:54.068Z,12.78
2019-05-07T20:46:24.956Z,12.74
2019-05-07T20:48:55.797Z,12.75
2019-05-07T20:51:29.122Z,12.88
2019-05-07T20:54:22.915Z,12.77
2019-05-07T20:57:13.062Z,12.71
2019-05-07T20:59:42.608Z,12.62
2019-05-07T21:02:13.203Z,12.60
2019-05-07T21:04:43.678Z,12.60
2019-05-07T21:07:14.175Z,12.51
2019-05-07T21:09:44.688Z,12.52
2019-05-07T21:12:15.321Z,12.60
2019-05-07T21:14:45.909Z,12.48
2019-05-07T21:17:16.391Z,12.49
2019-05-07T21:19:46.969Z,12.40
2019-05-07T21:22:17.478Z,12.33
2019-05-07T21:24:47.966Z,12.30
2019-05-07T21:27:19.185Z,12.27
2019-05-07T21:29:49.913Z,12.29
2019-05-07T21:32:22.918Z,12.21
2019-05-07T21:34:53.232Z,12.28
2019-05-07T21:37:23.796Z,12.28
2019-05-07T21:39:55.775Z,12.22
2019-05-07T21:42:26.321Z,12.18
2019-05-07T21:44:57.028Z,12.16
2019-05-07T21:47:27.656Z,12.16
2019-05-07T21:50:02.931Z,12.13
2019-05-07T21:52:39.427Z,12.10
2019-05-07T21:55:35.687Z,12.19
2019-05-07T21:58:23.962Z,12.18
2019-05-07T22:01:04.589Z,12.14
2019-05-07T22:03:35.456Z,12.20
2019-05-07T22:06:05.961Z,12.05
2019-05-07T22:08:36.424Z,12.03
2019-05-07T22:11:07.092Z,12.01
2019-05-07T22:13:37.558Z,12.00
2019-05-07T22:16:08.015Z,11.94
2019-05-07T22:18:38.527Z,11.84
2019-05-07T22:21:28.061Z,11.81
2019-05-07T22:23:58.648Z,11.75
2019-05-07T22:26:29.101Z,11.78
2019-05-07T22:28:59.511Z,11.81
2019-05-07T22:31:47.809Z,11.73
2019-05-07T22:34:42.144Z,11.84
2019-05-07T22:37:12.687Z,11.67
2019-05-07T22:39:43.301Z,11.70
2019-05-07T22:42:13.742Z,11.63
2019-05-07T22:44:44.286Z,11.64
2019-05-07T22:47:22.645Z,11.69
2019-05-07T22:49:53.865Z,11.70
2019-05-07T22:52:24.573Z,11.67
2019-05-07T22:54:55.040Z,11.64
2019-05-07T22:57:47.313Z,11.75
2019-05-07T23:00:32.913Z,11.68
2019-05-07T23:03:03.378Z,11.62
2019-05-07T23:05:33.863Z,11.56
2019-05-07T23:08:04.451Z,11.54
2019-05-07T23:10:34.928Z,11.55
2019-05-07T23:13:05.391Z,11.49
2019-05-07T23:15:35.925Z,11.48
2019-05-07T23:18:06.428Z,11.51
2019-05-07T23:20:36.929Z,11.42
2019-05-07T23:23:07.515Z,11.45
2019-05-07T23:25:38.034Z,11.45
2019-05-07T23:28:08.485Z,11.53
2019-05-07T23:30:38.897Z,11.41
2019-05-07T23:33:09.359Z,11.48
2019-05-07T23:35:42.009Z,11.38
2019-05-07T23:38:15.622Z,11.42
2019-05-07T23:40:52.563Z,11.48
2019-05-07T23:43:23.346Z,11.48
2019-05-07T23:45:53.851Z,11.53
2019-05-07T23:48:24.373Z,11.43
2019-05-07T23:50:54.845Z,11.44
2019-05-07T23:53:25.291Z,11.45
2019-05-07T23:55:55.776Z,11.36
2019-05-07T23:58:26.167Z,11.37
